Time;durP1;ratioP1;P1;durP2;ratioP2;P2;SDS_P1;SDS_P2;PMS_P1;PMS_P2;Temp;Humidity;BMP_temperature;BMP_pressure;BME280_temperature;BME280_humidity;BME280_pressure;Samples;Min_cycle;Max_cycle;Signal;HPM_P1;HPM_P2
2023/10/03 00:00:50;;;;;;;;;;;14.70;99.90;;;;;;5074021;28;19904;-55
2023/10/03 00:03:17;;;;;;;;;;;14.70;99.90;;;;;;5073446;28;19924;-56
2023/10/03 00:06:05;;;;;;;;;;;14.50;99.90;;;;;;5032020;28;19988;-56
2023/10/03 00:09:08;;;;;;;;;;;14.50;99.90;;;;;;5031679;28;19921;-57
2023/10/03 00:11:53;;;;;;;;;;;14.60;99.90;;;;;;4928425;29;19910;-60
2023/10/03 00:14:19;;;;;;;;;;;14.50;99.90;;;;;;4915610;29;19911;-59
2023/10/03 00:17:11;;;;;;;;;;;14.70;99.90;;;;;;4915624;29;19914;-58
2023/10/03 00:19:38;;;;;;;;;;;14.70;99.90;;;;;;4908581;29;19911;-57
2023/10/03 00:22:12;;;;;;;;;;;14.70;99.90;;;;;;4915359;29;19918;-57
2023/10/03 00:25:04;;;;;;;;;;;14.70;99.90;;;;;;4896416;29;19914;-56
2023/10/03 00:27:32;;;;;;;;;;;14.80;99.90;;;;;;4881303;29;19915;-55
2023/10/03 00:29:58;;;;;;;;;;;14.80;99.90;;;;;;4915282;29;19915;-57
2023/10/03 00:32:25;;;;;;;;;;;14.80;99.90;;;;;;4915270;29;19907;-61
2023/10/03 00:34:51;;;;;;;;;;;14.50;99.90;;;;;;4915434;29;19993;-56
2023/10/03 00:37:18;;;;;;;;;;;14.10;99.90;;;;;;4922621;29;20030;-56
2023/10/03 00:39:43;;;;;;;;;;;14.10;99.90;;;;;;4953056;29;20402;-56
2023/10/03 00:42:11;;;;;;;;;;;14.20;99.90;;;;;;4961466;28;19996;-58
2023/10/03 00:44:40;;;;;;;;;;;14.20;99.90;;;;;;4975707;28;19905;-55
2023/10/03 00:47:08;;;;;;;;;;;14.00;99.90;;;;;;4992088;28;19913;-55
2023/10/03 00:49:38;;;;;;;;;;;14.00;99.90;;;;;;4992133;28;20392;-59
2023/10/03 00:52:09;;;;;;;;;;;13.90;99.90;;;;;;4975674;28;19906;-60
2023/10/03 00:54:36;;;;;;;;;;;14.10;99.90;;;;;;4974779;28;19913;-57
2023/10/03 00:57:02;;;;;;;;;;;14.20;99.90;;;;;;4972320;28;19906;-58
2023/10/03 00:59:28;;;;;;;;;;;14.30;99.90;;;;;;4972502;28;19906;-57
2023/10/03 01:02:05;;;;;;;;;;;14.40;99.90;;;;;;5006838;28;19916;-59
2023/10/03 01:04:34;;;;;;;;;;;14.40;99.90;;;;;;5035219;28;20387;-59
2023/10/03 01:07:03;;;;;;;;;;;14.40;99.90;;;;;;5068626;28;19905;-55
2023/10/03 01:09:31;;;;;;;;;;;14.00;99.90;;;;;;5031068;28;19913;-56
2023/10/03 01:11:57;;;;;;;;;;;14.00;99.90;;;;;;5031160;28;19944;-58
2023/10/03 01:14:27;;;;;;;;;;;13.90;99.90;;;;;;5031217;28;19955;-56
2023/10/03 01:16:53;;;;;;;;;;;14.00;99.90;;;;;;5030909;28;19905;-57
2023/10/03 01:19:25;;;;;;;;;;;14.10;99.90;;;;;;5047511;28;20431;-59
2023/10/03 01:21:52;;;;;;;;;;;14.00;99.90;;;;;;5030895;28;20387;-59
2023/10/03 01:24:24;;;;;;;;;;;14.00;99.90;;;;;;5047389;28;19911;-57
2023/10/03 01:26:52;;;;;;;;;;;14.10;99.90;;;;;;5014337;28;19928;-57
2023/10/03 01:29:19;;;;;;;;;;;13.90;99.90;;;;;;5030897;28;19913;-58
2023/10/03 01:31:47;;;;;;;;;;;13.90;99.90;;;;;;5030858;28;19917;-58
2023/10/03 01:34:15;;;;;;;;;;;13.90;99.90;;;;;;5012001;28;20388;-61
2023/10/03 01:36:42;;;;;;;;;;;14.00;99.90;;;;;;5014599;28;19972;-59
2023/10/03 01:39:08;;;;;;;;;;;14.00;99.90;;;;;;5014592;28;19909;-59
2023/10/03 01:41:37;;;;;;;;;;;13.90;99.90;;;;;;5018105;28;19905;-57
2023/10/03 01:44:03;;;;;;;;;;;13.80;99.90;;;;;;5034618;28;19935;-57
2023/10/03 01:46:29;;;;;;;;;;;13.90;99.90;;;;;;5034477;28;19912;-60
2023/10/03 01:48:58;;;;;;;;;;;14.00;99.90;;;;;;4994951;28;19913;-55
2023/10/03 01:51:27;;;;;;;;;;;14.10;99.90;;;;;;4962340;28;19906;-56
2023/10/03 01:53:55;;;;;;;;;;;14.30;99.90;;;;;;4978380;28;20045;-60
2023/10/03 01:56:22;;;;;;;;;;;14.30;99.90;;;;;;4994932;28;19906;-61
2023/10/03 01:58:49;;;;;;;;;;;14.30;99.90;;;;;;4994887;28;19941;-56
2023/10/03 02:01:14;;;;;;;;;;;14.20;99.90;;;;;;4994710;28;19905;-59
2023/10/03 02:03:40;;;;;;;;;;;14.10;99.90;;;;;;4978378;28;19918;-58
2023/10/03 02:06:07;;;;;;;;;;;14.00;99.90;;;;;;5011797;28;19912;-58
2023/10/03 02:08:33;;;;;;;;;;;13.90;99.90;;;;;;5014062;28;19924;-55
2023/10/03 02:10:59;;;;;;;;;;;13.80;99.90;;;;;;5014227;28;20285;-58
2023/10/03 02:13:25;;;;;;;;;;;13.70;99.90;;;;;;4994526;28;19913;-55
2023/10/03 02:15:56;;;;;;;;;;;13.70;99.90;;;;;;5010797;28;19910;-57
2023/10/03 02:18:22;;;;;;;;;;;13.70;99.90;;;;;;4994753;28;19956;-55
2023/10/03 02:21:01;;;;;;;;;;;13.80;99.90;;;;;;4994564;28;20296;-58
2023/10/03 02:23:27;;;;;;;;;;;13.80;99.90;;;;;;4991691;28;20154;-58
2023/10/03 02:25:57;;;;;;;;;;;14.00;99.90;;;;;;4986903;28;19913;-55
2023/10/03 02:28:26;;;;;;;;;;;14.20;99.90;;;;;;5013843;28;19936;-57
2023/10/03 02:30:52;;;;;;;;;;;14.20;99.90;;;;;;5013947;28;19906;-56
2023/10/03 02:33:22;;;;;;;;;;;14.00;99.90;;;;;;5013740;28;20284;-57
2023/10/03 02:36:08;;;;;;;;;;;13.90;99.90;;;;;;4994042;28;19953;-59
2023/10/03 02:38:36;;;;;;;;;;;13.80;99.90;;;;;;4994257;28;19910;-58
2023/10/03 02:41:05;;;;;;;;;;;13.60;99.90;;;;;;4994159;28;19905;-57
2023/10/03 02:43:51;;;;;;;;;;;13.60;99.90;;;;;;4994138;28;20361;-58
2023/10/03 02:46:17;;;;;;;;;;;;;;;;;;4994034;28;19975;-57
2023/10/03 02:48:44;;;;;;;;;;;13.30;99.90;;;;;;4994059;28;19917;-60
2023/10/03 02:51:12;;;;;;;;;;;13.30;99.90;;;;;;5018623;28;20271;-60
2023/10/03 02:53:38;;;;;;;;;;;13.10;99.90;;;;;;5033248;28;19912;-60
2023/10/03 02:56:04;;;;;;;;;;;13.20;99.90;;;;;;5033399;28;20260;-58
2023/10/03 02:58:31;;;;;;;;;;;13.30;99.90;;;;;;5033241;28;19905;-58
2023/10/03 03:00:58;;;;;;;;;;;13.40;99.90;;;;;;5033229;28;19906;-58
2023/10/03 03:03:44;;;;;;;;;;;13.40;99.90;;;;;;5013057;28;20018;-55
2023/10/03 03:06:14;;;;;;;;;;;;;;;;;;5015861;28;19905;-58
2023/10/03 03:08:43;;;;;;;;;;;13.40;99.90;;;;;;5016360;28;19920;-57
2023/10/03 03:11:11;;;;;;;;;;;13.40;99.90;;;;;;5016450;28;19916;-57
2023/10/03 03:13:56;;;;;;;;;;;13.30;99.90;;;;;;5013155;28;19949;-57
2023/10/03 03:16:21;;;;;;;;;;;13.40;99.90;;;;;;5013220;28;19905;-57
2023/10/03 03:18:50;;;;;;;;;;;13.50;99.90;;;;;;5012842;28;19906;-55
2023/10/03 03:21:20;;;;;;;;;;;13.40;99.90;;;;;;4977002;28;19913;-59
2023/10/03 03:24:09;;;;;;;;;;;13.30;99.90;;;;;;4957639;28;19910;-58
2023/10/03 03:26:58;;;;;;;;;;;13.40;99.90;;;;;;4954480;29;19906;-56
2023/10/03 03:29:35;;;;;;;;;;;13.50;99.90;;;;;;4973696;28;20570;-59
2023/10/03 03:32:12;;;;;;;;;;;13.40;99.90;;;;;;4973694;28;19910;-57
2023/10/03 03:34:38;;;;;;;;;;;13.60;99.90;;;;;;4973540;28;19917;-58
2023/10/03 03:37:21;;;;;;;;;;;13.40;99.90;;;;;;4977394;28;19965;-59
2023/10/03 03:39:53;;;;;;;;;;;13.30;99.90;;;;;;4971418;28;19933;-57
2023/10/03 03:42:22;;;;;;;;;;;13.30;99.90;;;;;;5012125;28;19913;-60
2023/10/03 03:44:48;;;;;;;;;;;13.10;99.90;;;;;;5012655;28;19937;-59
2023/10/03 03:47:15;;;;;;;;;;;13.20;99.90;;;;;;4995843;28;19906;-60
2023/10/03 03:49:41;;;;;;;;;;;13.40;99.90;;;;;;5012387;28;19909;-57
2023/10/03 03:52:12;;;;;;;;;;;13.50;99.90;;;;;;5012512;28;19905;-60
2023/10/03 03:54:41;;;;;;;;;;;13.40;99.90;;;;;;5012235;28;19912;-59
2023/10/03 03:57:08;;;;;;;;;;;13.40;99.90;;;;;;5002093;28;19949;-57
2023/10/03 03:59:35;;;;;;;;;;;13.60;99.90;;;;;;4995679;28;19905;-54
2023/10/03 04:02:04;;;;;;;;;;;13.50;99.90;;;;;;5012432;28;19910;-56
2023/10/03 04:04:30;;;;;;;;;;;13.60;99.90;;;;;;5049073;28;19924;-59
2023/10/03 04:06:59;;;;;;;;;;;13.50;99.90;;;;;;5051238;28;20314;-56
2023/10/03 04:09:24;;;;;;;;;;;13.30;99.90;;;;;;5051357;28;19912;-57
2023/10/03 04:11:50;;;;;;;;;;;;;;;;;;5036613;28;19915;-60
2023/10/03 04:14:17;;;;;;;;;;;12.90;99.90;;;;;;5015444;28;19912;-55
2023/10/03 04:16:43;;;;;;;;;;;12.80;99.90;;;;;;5027710;28;19963;-57
2023/10/03 04:19:12;;;;;;;;;;;12.70;99.90;;;;;;5034508;28;19952;-59
2023/10/03 04:21:40;;;;;;;;;;;12.60;99.90;;;;;;4968566;28;19913;-57
2023/10/03 04:24:07;;;;;;;;;;;12.50;99.90;;;;;;4992228;28;19909;-59
2023/10/03 04:26:36;;;;;;;;;;;12.50;99.90;;;;;;4976154;28;19909;-59
2023/10/03 04:29:13;;;;;;;;;;;12.50;99.90;;;;;;4991311;28;19972;-56
2023/10/03 04:31:40;;;;;;;;;;;12.50;99.90;;;;;;4991049;28;20006;-54
2023/10/03 04:34:07;;;;;;;;;;;12.50;99.90;;;;;;4959980;28;19912;-54
2023/10/03 04:36:34;;;;;;;;;;;12.50;99.90;;;;;;4992285;28;19910;-58
2023/10/03 04:39:01;;;;;;;;;;;12.50;99.90;;;;;;4961373;28;19910;-57
2023/10/03 04:41:28;;;;;;;;;;;12.50;99.90;;;;;;5010224;28;20268;-56
2023/10/03 04:43:55;;;;;;;;;;;12.50;99.90;;;;;;5011109;28;19909;-52
2023/10/03 04:46:21;;;;;;;;;;;12.60;99.90;;;;;;5010571;28;20588;-54
2023/10/03 04:48:46;;;;;;;;;;;12.60;99.90;;;;;;5011793;28;19920;-57
2023/10/03 04:51:15;;;;;;;;;;;12.70;99.90;;;;;;5011536;28;19932;-57
2023/10/03 04:53:41;;;;;;;;;;;13.00;99.90;;;;;;5010725;28;19964;-57
2023/10/03 04:56:06;;;;;;;;;;;13.30;99.90;;;;;;5011088;28;19909;-56
2023/10/03 04:58:32;;;;;;;;;;;13.60;99.90;;;;;;5022992;28;19905;-55
2023/10/03 05:00:58;;;;;;;;;;;13.80;99.90;;;;;;5041959;28;19996;-57
2023/10/03 05:03:24;;;;;;;;;;;14.00;99.90;;;;;;5060508;28;19920;-57
2023/10/03 05:05:52;;;;;;;;;;;14.20;99.90;;;;;;5073040;28;19908;-53
2023/10/03 05:08:18;;;;;;;;;;;14.30;99.90;;;;;;5072252;28;19924;-54
2023/10/03 05:10:43;;;;;;;;;;;14.40;99.90;;;;;;5076946;28;19908;-54
2023/10/03 05:13:10;;;;;;;;;;;14.50;99.90;;;;;;5077787;28;19915;-55
2023/10/03 05:15:35;;;;;;;;;;;14.50;99.90;;;;;;5077249;28;19958;-58
2023/10/03 05:18:03;;;;;;;;;;;14.60;99.90;;;;;;5077572;28;19908;-58
2023/10/03 05:20:37;;;;;;;;;;;14.70;99.90;;;;;;5077165;28;19904;-57
2023/10/03 05:23:04;;;;;;;;;;;14.80;99.90;;;;;;5077085;28;19958;-56
2023/10/03 05:25:30;;;;;;;;;;;14.90;99.90;;;;;;5077159;28;20356;-55
2023/10/03 05:27:55;;;;;;;;;;;14.70;99.90;;;;;;5076923;28;20024;-56
2023/10/03 05:30:23;;;;;;;;;;;14.90;99.90;;;;;;5077294;28;19949;-56
2023/10/03 05:32:48;;;;;;;;;;;15.00;99.90;;;;;;5058878;28;19904;-59
2023/10/03 05:35:14;;;;;;;;;;;15.00;99.90;;;;;;5077200;28;19911;-58
2023/10/03 05:38:03;;;;;;;;;;;15.10;99.90;;;;;;5058721;28;19939;-57
2023/10/03 05:40:30;;;;;;;;;;;15.20;99.90;;;;;;5014687;28;19905;-61
2023/10/03 05:42:57;;;;;;;;;;;15.30;99.90;;;;;;5014749;28;20000;-58
2023/10/03 05:45:23;;;;;;;;;;;15.30;99.90;;;;;;4998535;28;19909;-56
2023/10/03 05:47:49;;;;;;;;;;;15.30;99.90;;;;;;4998201;28;20331;-60
2023/10/03 05:50:15;;;;;;;;;;;15.40;99.90;;;;;;5014807;28;19985;-56
2023/10/03 05:52:43;;;;;;;;;;;15.50;99.90;;;;;;5014669;28;19905;-55
2023/10/03 05:55:09;;;;;;;;;;;15.70;99.90;;;;;;5014994;28;19988;-55
2023/10/03 05:57:37;;;;;;;;;;;15.80;99.90;;;;;;5014797;28;20076;-58
2023/10/03 06:00:03;;;;;;;;;;;15.60;99.90;;;;;;5014562;28;19909;-56
2023/10/03 06:02:29;;;;;;;;;;;15.70;99.90;;;;;;4981705;28;19925;-55
2023/10/03 06:04:54;;;;;;;;;;;16.00;99.90;;;;;;5014439;28;19909;-55
2023/10/03 06:07:20;;;;;;;;;;;16.40;99.90;;;;;;5014563;28;19965;-57
2023/10/03 06:09:45;;;;;;;;;;;16.70;99.90;;;;;;5014467;28;19952;-57
2023/10/03 06:12:11;;;;;;;;;;;16.90;99.90;;;;;;5034147;28;19908;-54
2023/10/03 06:14:39;;;;;;;;;;;17.30;99.90;;;;;;5057511;28;19951;-56
2023/10/03 06:17:07;;;;;;;;;;;17.80;99.90;;;;;;5076281;28;20279;-57
2023/10/03 06:19:33;;;;;;;;;;;18.20;99.90;;;;;;5076040;28;19912;-54
2023/10/03 06:21:58;;;;;;;;;;;17.20;99.90;;;;;;5075438;28;19904;-53
2023/10/03 06:24:26;;;;;;;;;;;17.10;99.90;;;;;;5076068;28;19905;-55
2023/10/03 06:26:51;;;;;;;;;;;17.00;99.90;;;;;;5076150;28;19910;-52
2023/10/03 06:29:17;;;;;;;;;;;17.00;99.90;;;;;;5049744;28;19925;-55
2023/10/03 06:31:46;;;;;;;;;;;17.20;99.90;;;;;;5066238;28;19959;-51
2023/10/03 06:34:12;;;;;;;;;;;17.40;99.90;;;;;;5075089;28;19908;-54
2023/10/03 06:36:38;;;;;;;15.35;9.52;;;17.90;99.90;;;;;;5074425;28;20886;-57
2023/10/03 06:39:05;;;;;;;14.82;9.02;;;;;;;;;;5038108;28;20083;-55
2023/10/03 06:41:31;;;;;;;16.80;9.23;;;19.40;99.90;;;;;;5074945;28;20035;-55
2023/10/03 06:43:57;;;;;;;14.23;9.27;;;19.30;99.90;;;;;;5071835;28;20058;-57
2023/10/03 06:46:23;;;;;;;13.30;8.80;;;19.10;99.90;;;;;;5074966;28;20028;-61
2023/10/03 06:48:52;;;;;;;16.95;10.13;;;19.70;99.90;;;;;;5073176;28;20036;-60
2023/10/03 06:51:19;;;;;;;17.65;9.40;;;;;;;;;;5040172;28;20044;-56
2023/10/03 06:53:48;;;;;;;14.50;8.55;;;;;;;;;;5072565;28;20107;-58
2023/10/03 06:56:15;;;;;;;17.15;8.60;;;23.10;99.90;;;;;;5073552;28;20441;-58
2023/10/03 06:58:41;;;;;;;16.58;9.15;;;;;;;;;;5073645;28;20476;-61
2023/10/03 07:01:11;;;;;;;12.70;8.07;;;;;;;;;;5074712;28;20476;-61
2023/10/03 07:03:37;;;;;;;12.90;7.32;;;;;;;;;;5074531;28;20495;-56
2023/10/03 07:06:04;;;;;;;11.38;8.60;;;;;;;;;;5072068;28;20036;-60
2023/10/03 07:08:30;;;;;;;14.45;8.73;;;;;;;;;;5056288;28;20560;-54
2023/10/03 07:10:57;;;;;;;13.20;8.18;;;;;;;;;;5052275;28;20095;-54
2023/10/03 07:13:26;;;;;;;12.20;7.57;;;;;;;;;;5052195;28;20056;-58
2023/10/03 07:15:53;;;;;;;13.80;7.72;;;;;;;;;;5004238;28;20037;-52
2023/10/03 07:18:22;;;;;;;12.02;7.40;;;;;;;;;;5051171;28;20120;-60
2023/10/03 07:20:48;;;;;;;10.82;7.50;;;;;;;;;;5049062;28;20386;-55
2023/10/03 07:23:14;;;;;;;15.90;7.35;;;28.70;99.90;;;;;;5051433;28;20032;-56
2023/10/03 07:25:39;;;;;;;10.80;7.55;;;29.00;99.90;;;;;;5051571;28;20048;-63
2023/10/03 07:28:06;;;;;;;12.95;6.68;;;;;;;;;;5045044;28;20029;-54
2023/10/03 07:30:33;;;;;;;11.73;7.47;;;;;;;;;;5046211;28;20473;-61
2023/10/03 07:32:59;;;;;;;10.68;7.40;;;;;;;;;;5031712;28;20051;-62
2023/10/03 07:35:26;;;;;;;9.90;6.45;;;;;;;;;;5049204;28;20466;-59
2023/10/03 07:37:52;;;;;;;13.00;7.85;;;;;;;;;;5048434;28;20029;-63
2023/10/03 07:40:22;;;;;;;9.75;7.15;;;;;;;;;;4998787;28;20075;-57
2023/10/03 07:42:49;;;;;;;9.70;6.57;;;;;;;;;;5082304;28;20518;-56
2023/10/03 07:45:16;;;;;;;11.68;7.10;;;;;;;;;;5084532;28;20046;-56
2023/10/03 07:47:42;;;;;;;11.32;8.30;;;;;;;;;;5085061;28;20043;-55
2023/10/03 07:50:11;;;;;;;9.45;6.97;;;;;;;;;;5085411;28;20097;-64
2023/10/03 07:52:37;;;;;;;10.93;7.32;;;31.70;99.90;;;;;;5052464;28;20115;-54
2023/10/03 07:55:05;;;;;;;12.25;7.90;;;31.50;99.90;;;;;;5071463;28;20035;-61
2023/10/03 07:57:31;;;;;;;13.68;8.93;;;;;;;;;;5019616;28;20036;-61
2023/10/03 07:59:58;;;;;;;12.82;6.75;;;;;;;;;;5071326;28;20024;-63
2023/10/03 08:02:32;;;;;;;11.02;6.57;;;;;;;;;;5071035;28;20036;-63
2023/10/03 08:05:00;;;;;;;14.52;6.85;;;;;;;;;;5071468;28;20028;-72
2023/10/03 08:07:27;;;;;;;14.85;8.02;;;;;;;;;;5071078;28;20024;-59
2023/10/03 08:22:53;;;;;;;13.05;6.72;;;32.30;97.50;;;;;;5035685;28;20460;-64
2023/10/03 08:25:21;;;;;;;20.77;11.88;;;31.50;97.30;;;;;;5021366;28;20041;-54
2023/10/03 08:27:47;;;;;;;48.42;23.52;;;;;;;;;;5034903;28;20022;-63
2023/10/03 08:30:25;;;;;;;28.33;13.80;;;33.00;97.70;;;;;;5031097;28;20030;-54
2023/10/03 08:32:54;;;;;;;12.60;7.47;;;32.80;97.20;;;;;;5027492;28;20156;-61
2023/10/03 08:35:21;;;;;;;39.08;13.40;;;32.50;97.00;;;;;;5029201;28;20048;-60
2023/10/03 08:37:46;;;;;;;12.45;6.10;;;32.70;98.30;;;;;;5031252;28;20041;-54
2023/10/03 08:40:19;;;;;;;15.10;7.28;;;32.00;97.00;;;;;;5028778;28;20044;-58
2023/10/03 08:42:52;;;;;;;16.35;8.00;;;31.40;97.20;;;;;;5034421;28;20039;-58
2023/10/03 08:56:59;;;;;;;11.30;7.20;;;31.60;96.70;;;;;;5095468;27;20448;-62
2023/10/03 08:59:25;;;;;;;23.67;13.75;;;32.20;95.50;;;;;;5088150;28;20089;-68
2023/10/03 09:01:53;;;;;;;14.73;7.53;;;30.90;95.00;;;;;;5087031;28;20119;-60
2023/10/03 09:04:18;;;;;;;13.25;7.28;;;30.70;95.30;;;;;;5085708;28;20491;-62
2023/10/03 09:06:46;;;;;;;9.85;6.00;;;31.50;96.00;;;;;;5088377;28;20028;-64
2023/10/03 09:09:16;;;;;;;14.85;7.63;;;;;;;;;;5069301;28;20089;-60
2023/10/03 09:11:51;;;;;;;9.17;5.30;;;32.80;97.10;;;;;;5088287;28;20549;-65
2023/10/03 09:14:20;;;;;;;22.88;6.60;;;;;;;;;;5088470;28;20020;-59
2023/10/03 09:16:50;;;;;;;10.98;6.13;;;32.70;99.90;;;;;;5088094;28;20082;-62
2023/10/03 09:19:26;;;;;;;10.07;5.93;;;;;;;;;;5087055;28;20387;-62
2023/10/03 09:21:54;;;;;;;15.93;7.60;;;32.30;94.40;;;;;;5087860;28;20039;-55
2023/10/03 09:24:22;;;;;;;9.00;5.85;;;32.50;95.20;;;;;;5088063;28;20020;-62
2023/10/03 09:26:54;;;;;;;9.85;5.55;;;32.40;98.00;;;;;;5088116;28;20115;-65
2023/10/03 09:29:30;;;;;;;9.77;5.88;;;;;;;;;;5085240;28;20036;-63
2023/10/03 09:31:57;;;;;;;10.18;5.82;;;;;;;;;;5084895;28;20448;-58
2023/10/03 09:34:30;;;;;;;17.77;8.98;;;32.20;94.60;;;;;;5085352;28;20067;-62
2023/10/03 09:37:02;;;;;;;11.70;6.40;;;;;;;;;;5085184;28;20111;-63
2023/10/03 09:39:39;;;;;;;13.05;6.45;;;31.90;99.90;;;;;;5085117;28;20423;-61
2023/10/03 09:42:15;;;;;;;14.00;8.43;;;;;;;;;;5082038;28;20070;-63
2023/10/03 09:44:57;;;;;;;7.50;4.53;;;30.90;99.90;;;;;;5085091;28;20032;-55
2023/10/03 09:47:29;;;;;;;;;;;;;;;;;;5085526;28;20042;-61
2023/10/03 09:50:06;;;;;;;14.30;7.18;;;;;;;;;;5084900;28;20038;-56
2023/10/03 09:52:33;;;;;;;15.20;11.52;;;;;;;;;;5086074;28;20086;-61
2023/10/03 09:55:17;;;;;;;16.20;9.23;;;31.00;99.90;;;;;;5085671;28;20059;-61
2023/10/03 09:57:51;;;;;;;9.52;6.15;;;31.40;95.20;;;;;;5073362;28;20083;-59
2023/10/03 10:03:05;;;;;;;14.02;8.45;;;;;;;;;;5074340;28;20130;-62
2023/10/03 10:05:32;;;;;;;8.18;4.50;;;;;;;;;;5054965;28;20040;-60
2023/10/03 10:08:27;;;;;;;10.07;4.80;;;30.40;94.10;;;;;;5074332;28;20043;-62
2023/10/03 10:11:09;;;;;;;25.02;12.48;;;31.10;94.30;;;;;;5074895;28;20039;-59
2023/10/03 10:13:36;;;;;;;;;;;;;;;;;;5075082;28;20387;-60
2023/10/03 10:16:13;;;;;;;8.73;4.32;;;;;;;;;;5074645;28;20263;-59
2023/10/03 10:18:45;;;;;;;30.48;12.88;;;31.60;99.10;;;;;;5074546;28;20024;-59
2023/10/03 10:21:20;;;;;;;23.30;9.57;;;;;;;;;;5074501;28;20114;-56
2023/10/03 10:24:06;;;;;;;14.30;7.30;;;;;;;;;;5074196;28;20593;-58
2023/10/03 10:26:34;;;;;;;14.13;8.27;;;;;;;;;;5074455;28;20033;-57
2023/10/03 10:29:08;;;;;;;7.97;5.28;;;;;;;;;;5074324;28;20032;-63
2023/10/03 10:31:42;;;;;;;6.70;4.90;;;31.20;94.60;;;;;;5074320;28;20036;-58
2023/10/03 10:34:18;;;;;;;16.40;7.88;;;31.90;94.50;;;;;;5074289;28;20460;-63
2023/10/03 10:36:57;;;;;;;17.48;9.52;;;;;;;;;;5074163;28;20117;-59
2023/10/03 10:39:23;;;;;;;17.08;5.97;;;;;;;;;;5074013;28;20111;-61
2023/10/03 10:42:14;;;;;;;8.10;5.25;;;;;;;;;;5074274;28;20111;-58
2023/10/03 10:44:59;;;;;;;6.57;4.27;;;;;;;;;;5073851;28;20032;-59
2023/10/03 10:47:27;;;;;;;16.00;9.52;;;32.40;97.70;;;;;;5073801;28;20035;-62
2023/10/03 10:50:00;;;;;;;12.35;7.07;;;;;;;;;;5073931;28;20060;-58
2023/10/03 10:52:29;;;;;;;11.88;7.20;;;;;;;;;;5074289;28;20040;-57
2023/10/03 10:54:56;;;;;;;13.50;7.95;;;;;;;;;;5073548;28;20376;-60
2023/10/03 10:57:26;;;;;;;9.98;6.65;;;;;;;;;;5073756;28;20099;-64
2023/10/03 10:59:53;;;;;;;7.05;4.63;;;;;;;;;;5073910;28;20024;-60
2023/10/03 11:02:24;;;;;;;11.48;4.95;;;;;;;;;;5073594;28;20142;-63
2023/10/03 11:04:56;;;;;;;7.60;4.47;;;;;;;;;;5073775;28;20036;-59
2023/10/03 11:07:24;;;;;;;16.92;5.80;;;;;;;;;;5073488;28;20519;-59
2023/10/03 11:09:55;;;;;;;8.65;5.40;;;;;;;;;;5071613;28;20048;-57
2023/10/03 11:12:25;;;;;;;17.00;7.03;;;;;;;;;;5073724;28;20025;-56
2023/10/03 11:14:52;;;;;;;8.57;4.60;;;33.20;95.20;;;;;;5073141;28;20028;-60
2023/10/03 11:17:38;;;;;;;8.30;3.85;;;33.60;95.70;;;;;;5073355;28;20055;-62
2023/10/03 11:20:08;;;;;;;7.72;4.10;;;33.10;92.20;;;;;;5070699;28;20413;-65
2023/10/03 11:22:47;;;;;;;7.05;3.75;;;31.90;97.50;;;;;;5070609;28;20127;-63
2023/10/03 11:25:13;;;;;;;7.53;3.53;;;32.00;99.90;;;;;;5070847;28;20123;-61
2023/10/03 11:27:40;;;;;;;6.15;3.97;;;;;;;;;;5020760;28;20033;-60
2023/10/03 11:30:15;;;;;;;7.65;4.72;;;;;;;;;;5070799;28;20054;-59
2023/10/03 11:32:41;;;;;;;6.88;4.03;;;32.30;99.30;;;;;;5020573;28;20442;-57
2023/10/03 11:35:17;;;;;;;6.40;4.07;;;31.70;94.20;;;;;;5070493;28;20128;-64
2023/10/03 11:37:44;;;;;;;8.60;4.10;;;;;;;;;;5020016;28;20542;-57
2023/10/03 11:40:18;;;;;;;7.38;4.18;;;;;;;;;;5070483;28;20070;-58
2023/10/03 11:42:48;;;;;;;8.98;4.80;;;;;;;;;;5070436;28;20039;-60
2023/10/03 11:45:18;;;;;;;5.55;4.00;;;;;;;;;;5070410;28;20487;-62
2023/10/03 11:47:44;;;;;;;8.23;3.55;;;;;;;;;;5070408;28;20024;-59
2023/10/03 11:50:10;;;;;;;8.50;4.18;;;;;;;;;;5070566;28;20040;-63
2023/10/03 11:52:37;;;;;;;6.50;3.92;;;;;;;;;;5071577;28;20558;-62
2023/10/03 11:55:04;;;;;;;8.95;4.10;;;;;;;;;;5072328;28;20040;-60
2023/10/03 11:57:30;;;;;;;5.93;3.53;;;;;;;;;;5072817;28;20016;-58
2023/10/03 12:00:01;;;;;;;7.97;4.20;;;;;;;;;;5072404;28;20086;-58
2023/10/03 12:02:27;;;;;;;8.75;4.07;;;;;;;;;;5072584;28;20365;-57
2023/10/03 12:04:53;;;;;;;7.68;3.58;;;;;;;;;;5072421;28;20519;-63
2023/10/03 12:07:19;;;;;;;6.68;3.88;;;;;;;;;;5070403;28;20549;-57
2023/10/03 12:09:46;;;;;;;7.88;3.70;;;;;;;;;;5071513;28;20365;-59
2023/10/03 12:12:13;;;;;;;8.05;4.15;;;;;;;;;;5072064;28;20034;-59
2023/10/03 12:14:42;;;;;;;7.80;3.67;;;;;;;;;;5066948;28;20036;-60
2023/10/03 12:17:11;;;;;;;9.85;3.97;;;;;;;;;;5045748;28;20036;-60
2023/10/03 12:19:37;;;;;;;5.30;3.55;;;;;;;;;;5057876;28;20033;-56
2023/10/03 12:22:03;;;;;;;6.28;3.45;;;;;;;;;;5067403;28;20082;-55
2023/10/03 12:24:29;;;;;;;6.07;3.88;;;;;;;;;;5062787;28;20043;-53
2023/10/03 12:26:58;;;;;;;7.13;3.88;;;;;;;;;;5061597;28;20097;-57
2023/10/03 12:29:31;;;;;;;6.05;4.00;;;;;;;;;;5062364;28;20025;-56
2023/10/03 12:31:57;;;;;;;6.95;3.80;;;32.70;99.90;;;;;;5061535;28;20443;-61
2023/10/03 12:34:25;;;;;;;7.70;4.22;;;32.90;99.90;;;;;;5054709;28;20040;-65
2023/10/03 12:36:51;;;;;;;5.55;3.70;;;;;;;;;;5052032;28;20511;-59
2023/10/03 12:39:20;;;;;;;6.05;3.42;;;;;;;;;;5033803;28;20063;-62
2023/10/03 12:41:48;;;;;;;6.78;3.53;;;;;;;;;;5052341;28;20036;-60
2023/10/03 12:44:14;;;;;;;7.03;3.92;;;;;;;;;;5050020;28;20033;-58
2023/10/03 12:46:41;;;;;;;5.43;3.45;;;;;;;;;;5051795;28;20037;-59
2023/10/03 12:49:07;;;;;;;7.65;4.50;;;;;;;;;;5033410;28;20476;-59
2023/10/03 12:51:34;;;;;;;7.10;4.03;;;;;;;;;;5052520;28;20072;-59
2023/10/03 12:54:00;;;;;;;6.47;2.60;;;;;;;;;;5052026;28;20041;-60
2023/10/03 12:56:27;;;;;;;6.97;3.65;;;;;;;;;;5049767;28;20055;-60
2023/10/03 12:58:54;;;;;;;8.60;3.88;;;32.40;91.40;;;;;;5052023;28;20059;-57
2023/10/03 13:01:20;;;;;;;4.65;3.10;;;;;;;;;;5051908;28;20025;-52
2023/10/03 13:03:46;;;;;;;4.97;3.33;;;31.60;89.10;;;;;;5051791;28;20033;-61
2023/10/03 13:06:14;;;;;;;7.30;3.38;;;31.70;90.60;;;;;;5051683;28;20029;-62
2023/10/03 13:08:42;;;;;;;7.07;3.20;;;31.40;96.00;;;;;;5051516;28;20029;-56
2023/10/03 13:11:07;;;;;;;5.78;3.45;;;31.50;90.50;;;;;;5051723;28;20120;-55
2023/10/03 13:13:34;;;;;;;5.68;3.83;;;31.40;90.60;;;;;;5052264;28;20119;-63
2023/10/03 13:16:00;;;;;;;5.25;3.35;;;31.60;90.20;;;;;;5051560;28;20029;-62
2023/10/03 13:18:26;;;;;;;6.65;3.88;;;31.40;90.10;;;;;;5049541;28;20044;-57
2023/10/03 13:20:55;;;;;;;9.73;6.03;;;31.50;90.30;;;;;;5051852;28;20047;-58
2023/10/03 13:23:21;;;;;;;8.23;3.97;;;31.50;90.10;;;;;;5051914;28;20071;-57
2023/10/03 13:25:46;;;;;;;8.23;3.75;;;31.40;90.10;;;;;;5051325;28;20045;-56
2023/10/03 13:28:13;;;;;;;6.10;3.83;;;;;;;;;;5032848;28;20041;-55
2023/10/03 13:30:40;;;;;;;5.30;3.15;;;;;;;;;;5051550;28;20047;-55
2023/10/03 13:33:06;;;;;;;10.25;3.83;;;;;;;;;;5055025;28;20025;-55
2023/10/03 13:35:35;;;;;;;5.88;3.00;;;31.60;99.90;;;;;;5055527;28;20101;-61
2023/10/03 13:38:03;;;;;;;6.13;3.20;;;;;;;;;;5055732;28;20047;-59
2023/10/03 13:40:29;;;;;;;5.85;3.40;;;;;;;;;;5055422;28;20035;-57
2023/10/03 13:42:57;;;;;;;7.20;3.38;;;31.60;99.90;;;;;;5054728;28;20499;-59
2023/10/03 13:45:23;;;;;;;5.65;3.00;;;31.30;90.30;;;;;;5055047;28;20119;-58
2023/10/03 13:47:49;;;;;;;6.85;3.15;;;31.00;94.10;;;;;;5054643;28;20063;-57
2023/10/03 13:50:17;;;;;;;5.20;2.90;;;31.00;92.40;;;;;;5056958;28;20082;-61
2023/10/03 13:52:43;;;;;;;4.93;3.20;;;30.80;92.30;;;;;;5058426;28;20033;-60
2023/10/03 13:55:10;;;;;;;10.20;7.85;;;31.10;92.10;;;;;;5073734;28;20415;-58
2023/10/03 13:57:37;;;;;;;6.15;5.20;;;31.30;91.60;;;;;;5075637;28;20099;-56
2023/10/03 14:00:06;;;;;;;5.95;3.90;;;31.50;92.80;;;;;;5075195;28;20029;-59
2023/10/03 14:02:34;;;;;;;6.22;3.60;;;31.30;92.60;;;;;;5025308;28;20127;-56
2023/10/03 14:05:03;;;;;;;5.18;3.40;;;31.50;94.30;;;;;;5075457;28;20036;-55
2023/10/03 14:07:32;;;;;;;5.00;3.20;;;31.50;97.10;;;;;;5074797;28;20036;-53
2023/10/03 14:10:00;;;;;;;12.38;10.05;;;31.50;98.80;;;;;;5047512;28;20032;-57
2023/10/03 14:12:26;;;;;;;25.42;23.13;;;31.30;99.20;;;;;;5056125;28;20086;-53
2023/10/03 14:14:52;;;;;;;13.25;11.73;;;31.30;98.70;;;;;;5074902;28;20095;-57
2023/10/03 14:17:18;;;;;;;8.57;5.80;;;31.30;98.30;;;;;;5070601;28;20178;-59
2023/10/03 14:19:44;;;;;;;9.57;5.13;;;31.20;99.90;;;;;;5072764;28;20029;-54
2023/10/03 14:22:10;;;;;;;9.85;4.57;;;31.10;97.80;;;;;;5050607;28;20060;-57
2023/10/03 14:24:35;;;;;;;5.30;2.58;;;31.10;97.20;;;;;;5027984;28;20056;-57
2023/10/03 14:27:03;;;;;;;7.35;3.83;;;30.30;90.00;;;;;;5068705;28;20158;-55
2023/10/03 14:29:28;;;;;;;5.38;3.28;;;30.50;90.30;;;;;;5074003;28;20085;-56
2023/10/03 14:31:55;;;;;;;6.40;3.30;;;30.50;90.30;;;;;;5021964;28;20032;-57
2023/10/03 14:34:21;;;;;;;7.20;3.28;;;30.40;90.30;;;;;;5069173;28;20029;-57
2023/10/03 14:36:47;;;;;;;8.20;3.50;;;30.50;90.80;;;;;;5069456;28;20731;-59